Главная страница
METAR-TAF:

METAR-TAF

Аэропорты :

Абердин, Мэриленд, США

широта: 39-28N, долгота: 076-10W, высота над уровнем моря: 18 м

Текущие метеонаблюдения

Эта сводка был подготовлена 16 минут назад, в 10:58 UTC
Штиль
Температура 13°C
Влажность 100%
Давление 1016 hPa
Видимость: 16.1 км
Сплошная облачность на высоте 20000 фута

METAR: KAPG 241058Z 00000KT 10SM OVC200 13/13 A2999 RMK AO2A SLP159 T01260125 $

Время: 07:14 (11:14 UTC)


TAF: отсутствует

Метеонаблюдения и прогнозы для более 4000 аэропортов (сводки METAR и TAF).

Имеющиеся станции представлены на карте желтыми и красными точками.

Чтобы увидеть название станции, наведите на нее мышь.

Затем щелкните, чтобы увидеть метеонаблюдения и метеопрогнозы.

Управление картой: чтобы увеличить масштаб, щелкните зеленые кнопки с черным крестиком; чтобы уменьшить масштаб, щелкните зеленую кнопку с тире; для просмотра соседних карт щелкайте зеленые стрелки.


METAR-TAF: